Iver Bright — ZDKU4 — position and weather

sailwx.info

Track history (hours):
 
Tides and Currents Weather Stations Pressure Air Temp Water Temp Dewpoint Dewpoint Depression Visibility Wind Speed Wind Dir Waves Ship Positions

Iver Bright

Last reported at 2015-Aug-31 14:34 UTC. Time now 2015-Aug-31 15:18 UTC.
Position N 36°36' E 000°12'.

Length 111 m; draft 7 m.

Type: Tanker. MMSI: 236111811.

Date/timePositionNaut miles runAvg speedWind from/ knotsBaromVisibWave heightAir tempDewpointWater temp
2015-Aug-31 14:34N 36°36' E 000°12'1110.8
2015-Aug-31 13:33N 36°34' W 000°01'1111.2
2015-Aug-31 12:33N 36°32' W 000°15'1211.6
2015-Aug-31 11:32N 36°30' W 000°29'1111.4
2015-Aug-31 10:33N 36°28' W 000°43'42010.7
2015-Aug-29 19:10N 36°35' W 009°25'711.7
2015-Aug-29 18:33N 36°40' W 009°32'4711.7
2015-Aug-29 14:33N 37°24' W 009°49'1111.4
2015-Aug-29 13:33N 37°36' W 009°52'1111.0
2015-Aug-29 12:33N 37°46' W 009°56'1111.0
2015-Aug-29 11:33N 37°57' W 009°59'1211.7
2015-Aug-29 10:33N 38°08' W 010°02'1212.0
2015-Aug-29 09:33N 38°20' W 010°06'1312.8
2015-Aug-29 08:33N 38°32' W 010°09'1212.4
2015-Aug-29 07:33N 38°45' W 010°11'1212.4
2015-Aug-29 06:33N 38°57' W 010°11'1212.1
2015-Aug-29 05:33N 39°09' W 010°12'1211.9
2015-Aug-29 04:33N 39°21' W 010°12'1312.0
2015-Aug-29 03:30N 39°34' W 010°12'2412.2
2015-Aug-29 01:33N 39°58' W 010°12'  
2015-Aug-25 16:29N 50°31' E 000°07'10 8.7
2015-Aug-25 15:20N 50°35' E 000°22'7 9.0
2015-Aug-25 14:33N 50°38' E 000°32'1010.1
2015-Aug-25 13:33N 50°43' E 000°45'1110.9
2015-Aug-25 12:33N 50°49' E 001°00'1110.8
2015-Aug-25 11:33N 50°54' E 001°15'1010.3
2015-Aug-25 10:33N 51°01' E 001°27'9 9.5
2015-Aug-25 09:33N 51°08' E 001°37'9 9.4
2015-Aug-25 08:33N 51°15' E 001°48'9 9.4
2015-Aug-25 07:33N 51°23' E 001°57'8 8.2
2015-Aug-25 06:33N 51°23' E 002°10'10 9.5
2015-Aug-25 05:32N 51°22' E 002°25'1010.2
2015-Aug-25 04:33N 51°23' E 002°41'9 8.9
2015-Aug-25 03:33N 51°23' E 002°55'9 9.3
2015-Aug-25 02:33N 51°24' E 003°10'1010.5
2015-Aug-25 01:33N 51°25' E 003°27'9 8.8
2015-Aug-25 00:33N 51°26' E 003°41'10 9.7
2015-Aug-24 23:33N 51°22' E 003°55'7 6.8
2015-Aug-24 22:33N 51°22' E 004°06'8 7.6
2015-Aug-24 21:33N 51°19' E 004°16'3 2.9
2015-Aug-24 20:33N 51°17' E 004°20'1 1.0
2015-Aug-24 19:33N 51°16' E 004°20'0 0.0
2015-Aug-24 18:33N 51°16' E 004°20'0 0.0
2015-Aug-24 17:33N 51°16' E 004°20'0 0.0
2015-Aug-24 16:33N 51°16' E 004°20'0 0.0
2015-Aug-24 15:33N 51°16' E 004°20'0 0.0
2015-Aug-24 14:33N 51°16' E 004°20'0 0.0
2015-Aug-24 13:33N 51°16' E 004°20'0 0.0
2015-Aug-24 12:33N 51°16' E 004°20'0 0.0
2015-Aug-24 11:30N 51°16' E 004°20'0 0.0
2015-Aug-24 10:27N 51°16' E 004°20'0 0.0
2015-Aug-24 09:34N 51°16' E 004°20'0 0.0
2015-Aug-24 08:33N 51°16' E 004°20'0 0.0
2015-Aug-24 07:30N 51°16' E 004°20'0 0.0
2015-Aug-24 06:33N 51°16' E 004°20'0 0.0
2015-Aug-24 05:33N 51°16' E 004°20'0 0.0
2015-Aug-24 04:27N 51°16' E 004°20'0 0.0
2015-Aug-24 03:33N 51°16' E 004°20'0 0.0
2015-Aug-24 02:33N 51°16' E 004°20'0 0.0
2015-Aug-24 01:27N 51°16' E 004°20'0 0.0
2015-Aug-24 00:27N 51°16' E 004°20'0 0.0
2015-Aug-23 23:33N 51°16' E 004°20'0 0.0
2015-Aug-23 22:33N 51°16' E 004°20'0 0.4
2015-Aug-23 21:34N 51°16' E 004°20'5 5.0
2015-Aug-23 20:34N 51°21' E 004°17'1 1.1
2015-Aug-23 19:33N 51°21' E 004°15'8 8.3
2015-Aug-23 18:33N 51°23' E 004°02'9 9.0
2015-Aug-23 17:34N 51°21' E 003°49'1010.3
2015-Aug-23 16:34N 51°25' E 003°34'1313.0
2015-Aug-23 15:33N 51°24' E 003°13'1111.4
2015-Aug-23 14:33N 51°22' E 002°55'1110.6
2015-Aug-23 13:33N 51°22' E 002°38'9 8.9
2015-Aug-23 12:33N 51°20' E 002°24'10 9.5
2015-Aug-23 11:33N 51°16' E 002°11'9 9.3
2015-Aug-23 10:33N 51°11' E 001°58'9 9.1
2015-Aug-23 09:33N 51°07' E 001°45'8 8.4
2015-Aug-23 08:33N 51°00' E 001°36'9 9.4
2015-Aug-23 07:33N 50°53' E 001°27'1010.1
2015-Aug-23 06:33N 50°43' E 001°22'10 9.8
2015-Aug-23 05:33N 50°37' E 001°10'11 9.7
2015-Aug-23 04:23N 50°30' E 000°56'9 9.6
2015-Aug-23 03:26N 50°26' E 000°43'9 9.6
2015-Aug-23 02:32N 50°23' E 000°30'1010.1
2015-Aug-23 01:33N 50°20' E 000°16'1110.3
2015-Aug-23 00:30N 50°16' E 000°00'1010.5
2015-Aug-22 23:32N 50°11' W 000°14'1010.3
2015-Aug-22 22:33N 50°07' W 000°28'10 9.8
2015-Aug-22 21:33N 50°03' W 000°42'9 9.4
2015-Aug-22 20:33N 49°59' W 000°56'9 8.9
2015-Aug-22 19:32N 49°55' W 001°08'24 5.8
2015-Aug-22 15:26N 49°52' W 001°45'8 9.1
2015-Aug-22 14:33N 50°00' W 001°47'1110.6
2015-Aug-22 13:33N 49°58' W 002°04'1111.2
2015-Aug-22 12:33N 49°55' W 002°20'102 9.9
2015-Aug-22 02:12N 49°09' W 004°41'6 9.4
2015-Aug-22 01:33N 49°06' W 004°49'10 9.7
2015-Aug-22 00:33N 49°01' W 005°02'13 9.1
2015-Aug-21 23:10N 48°54' W 005°18'57 9.5
2015-Aug-21 17:10N 48°08' W 006°08'  
Track history (hours):
 
Tides and Currents Weather Stations Pressure Air Temp Water Temp Dewpoint Dewpoint Depression Visibility Wind Speed Wind Dir Waves Ship Positions

Iver Bright

Last reported at 2015-Aug-31 14:34 UTC. Time now 2015-Aug-31 15:18 UTC.
Position N 36°36' E 000°12'.

Length 111 m; draft 7 m.

Type: Tanker. MMSI: 236111811.

Date/timePositionNaut miles runAvg speedWind from/ knotsBaromVisibWave heightAir tempDewpointWater temp
2015-Aug-31 14:34N 36°36' E 000°12'1110.8
2015-Aug-31 13:33N 36°34' W 000°01'1111.2
2015-Aug-31 12:33N 36°32' W 000°15'1211.6
2015-Aug-31 11:32N 36°30' W 000°29'1111.4
2015-Aug-31 10:33N 36°28' W 000°43'42010.7
2015-Aug-29 19:10N 36°35' W 009°25'711.7
2015-Aug-29 18:33N 36°40' W 009°32'4711.7
2015-Aug-29 14:33N 37°24' W 009°49'1111.4
2015-Aug-29 13:33N 37°36' W 009°52'1111.0
2015-Aug-29 12:33N 37°46' W 009°56'1111.0
2015-Aug-29 11:33N 37°57' W 009°59'1211.7
2015-Aug-29 10:33N 38°08' W 010°02'1212.0
2015-Aug-29 09:33N 38°20' W 010°06'1312.8
2015-Aug-29 08:33N 38°32' W 010°09'1212.4
2015-Aug-29 07:33N 38°45' W 010°11'1212.4
2015-Aug-29 06:33N 38°57' W 010°11'1212.1
2015-Aug-29 05:33N 39°09' W 010°12'1211.9
2015-Aug-29 04:33N 39°21' W 010°12'1312.0
2015-Aug-29 03:30N 39°34' W 010°12'2412.2
2015-Aug-29 01:33N 39°58' W 010°12'  
2015-Aug-25 16:29N 50°31' E 000°07'10 8.7
2015-Aug-25 15:20N 50°35' E 000°22'7 9.0
2015-Aug-25 14:33N 50°38' E 000°32'1010.1
2015-Aug-25 13:33N 50°43' E 000°45'1110.9
2015-Aug-25 12:33N 50°49' E 001°00'1110.8
2015-Aug-25 11:33N 50°54' E 001°15'1010.3
2015-Aug-25 10:33N 51°01' E 001°27'9 9.5
2015-Aug-25 09:33N 51°08' E 001°37'9 9.4
2015-Aug-25 08:33N 51°15' E 001°48'9 9.4
2015-Aug-25 07:33N 51°23' E 001°57'8 8.2
2015-Aug-25 06:33N 51°23' E 002°10'10 9.5
2015-Aug-25 05:32N 51°22' E 002°25'1010.2
2015-Aug-25 04:33N 51°23' E 002°41'9 8.9
2015-Aug-25 03:33N 51°23' E 002°55'9 9.3
2015-Aug-25 02:33N 51°24' E 003°10'1010.5
2015-Aug-25 01:33N 51°25' E 003°27'9 8.8
2015-Aug-25 00:33N 51°26' E 003°41'10 9.7
2015-Aug-24 23:33N 51°22' E 003°55'7 6.8
2015-Aug-24 22:33N 51°22' E 004°06'8 7.6
2015-Aug-24 21:33N 51°19' E 004°16'3 2.9
2015-Aug-24 20:33N 51°17' E 004°20'1 1.0
2015-Aug-24 19:33N 51°16' E 004°20'0 0.0
2015-Aug-24 18:33N 51°16' E 004°20'0 0.0
2015-Aug-24 17:33N 51°16' E 004°20'0 0.0
2015-Aug-24 16:33N 51°16' E 004°20'0 0.0
2015-Aug-24 15:33N 51°16' E 004°20'0 0.0
2015-Aug-24 14:33N 51°16' E 004°20'0 0.0
2015-Aug-24 13:33N 51°16' E 004°20'0 0.0
2015-Aug-24 12:33N 51°16' E 004°20'0 0.0
2015-Aug-24 11:30N 51°16' E 004°20'0 0.0
2015-Aug-24 10:27N 51°16' E 004°20'0 0.0
2015-Aug-24 09:34N 51°16' E 004°20'0 0.0
2015-Aug-24 08:33N 51°16' E 004°20'0 0.0
2015-Aug-24 07:30N 51°16' E 004°20'0 0.0
2015-Aug-24 06:33N 51°16' E 004°20'0 0.0
2015-Aug-24 05:33N 51°16' E 004°20'0 0.0
2015-Aug-24 04:27N 51°16' E 004°20'0 0.0
2015-Aug-24 03:33N 51°16' E 004°20'0 0.0
2015-Aug-24 02:33N 51°16' E 004°20'0 0.0
2015-Aug-24 01:27N 51°16' E 004°20'0 0.0
2015-Aug-24 00:27N 51°16' E 004°20'0 0.0
2015-Aug-23 23:33N 51°16' E 004°20'0 0.0
2015-Aug-23 22:33N 51°16' E 004°20'0 0.4
2015-Aug-23 21:34N 51°16' E 004°20'5 5.0
2015-Aug-23 20:34N 51°21' E 004°17'1 1.1
2015-Aug-23 19:33N 51°21' E 004°15'8 8.3
2015-Aug-23 18:33N 51°23' E 004°02'9 9.0
2015-Aug-23 17:34N 51°21' E 003°49'1010.3
2015-Aug-23 16:34N 51°25' E 003°34'1313.0
2015-Aug-23 15:33N 51°24' E 003°13'1111.4
2015-Aug-23 14:33N 51°22' E 002°55'1110.6
2015-Aug-23 13:33N 51°22' E 002°38'9 8.9
2015-Aug-23 12:33N 51°20' E 002°24'10 9.5
2015-Aug-23 11:33N 51°16' E 002°11'9 9.3
2015-Aug-23 10:33N 51°11' E 001°58'9 9.1
2015-Aug-23 09:33N 51°07' E 001°45'8 8.4
2015-Aug-23 08:33N 51°00' E 001°36'9 9.4
2015-Aug-23 07:33N 50°53' E 001°27'1010.1
2015-Aug-23 06:33N 50°43' E 001°22'10 9.8
2015-Aug-23 05:33N 50°37' E 001°10'11 9.7
2015-Aug-23 04:23N 50°30' E 000°56'9 9.6
2015-Aug-23 03:26N 50°26' E 000°43'9 9.6
2015-Aug-23 02:32N 50°23' E 000°30'1010.1
2015-Aug-23 01:33N 50°20' E 000°16'1110.3
2015-Aug-23 00:30N 50°16' E 000°00'1010.5
2015-Aug-22 23:32N 50°11' W 000°14'1010.3
2015-Aug-22 22:33N 50°07' W 000°28'10 9.8
2015-Aug-22 21:33N 50°03' W 000°42'9 9.4
2015-Aug-22 20:33N 49°59' W 000°56'9 8.9
2015-Aug-22 19:32N 49°55' W 001°08'24 5.8
2015-Aug-22 15:26N 49°52' W 001°45'8 9.1
2015-Aug-22 14:33N 50°00' W 001°47'1110.6
2015-Aug-22 13:33N 49°58' W 002°04'1111.2
2015-Aug-22 12:33N 49°55' W 002°20'102 9.9
2015-Aug-22 02:12N 49°09' W 004°41'6 9.4
2015-Aug-22 01:33N 49°06' W 004°49'10 9.7
2015-Aug-22 00:33N 49°01' W 005°02'13 9.1
2015-Aug-21 23:10N 48°54' W 005°18'57 9.5
2015-Aug-21 17:10N 48°08' W 006°08'  

Dump ship's entire track history